createdAt,value
2023-04-17T00:00:50.967Z,42.08
2023-04-17T00:01:51.018Z,42.07
2023-04-17T00:02:51.182Z,42.07
2023-04-17T00:03:51.287Z,42.06
2023-04-17T00:04:51.225Z,42.05
2023-04-17T00:05:51.128Z,42.05
2023-04-17T00:06:51.148Z,42.03
2023-04-17T00:07:51.181Z,42.05
2023-04-17T00:08:50.197Z,42.08
2023-04-17T00:09:51.239Z,42.04
2023-04-17T00:10:57.035Z,42.06
2023-04-17T00:11:51.264Z,42.03
2023-04-17T00:12:51.253Z,42.05
2023-04-17T00:13:50.269Z,42.04
2023-04-17T00:14:51.262Z,42.04
2023-04-17T00:15:50.249Z,42.04
2023-04-17T00:16:50.405Z,42.06
2023-04-17T00:17:51.276Z,42.04
2023-04-17T00:18:51.250Z,42.02
2023-04-17T00:19:51.238Z,42.02
2023-04-17T00:20:50.201Z,42.04
2023-04-17T00:21:50.205Z,42.03
2023-04-17T00:22:50.185Z,42.01
2023-04-17T00:23:50.181Z,42.02
2023-04-17T00:24:51.173Z,42.04
2023-04-17T00:25:50.173Z,42.02
2023-04-17T00:26:50.147Z,42.02
2023-04-17T00:27:50.337Z,42.03
2023-04-17T00:28:51.143Z,41.99
2023-04-17T00:29:51.134Z,42.03
2023-04-17T00:30:50.190Z,42.01
2023-04-17T00:31:50.267Z,42.00
2023-04-17T00:32:51.250Z,42.01
2023-04-17T00:33:50.264Z,42.01
2023-04-17T00:34:53.090Z,42.01
2023-04-17T00:35:50.313Z,42.05
2023-04-17T00:36:51.280Z,42.03
2023-04-17T00:37:50.288Z,42.00
2023-04-17T00:38:51.311Z,42.03
2023-04-17T00:39:51.288Z,42.00
2023-04-17T00:40:50.264Z,42.02
2023-04-17T00:41:50.231Z,41.99
2023-04-17T00:42:50.326Z,42.00
2023-04-17T00:43:51.246Z,42.03
2023-04-17T00:44:50.231Z,42.01
2023-04-17T00:45:51.312Z,42.00
2023-04-17T00:46:51.230Z,42.01
2023-04-17T00:47:50.272Z,41.98
2023-04-17T00:48:51.213Z,41.99
2023-04-17T00:49:51.295Z,41.98
2023-04-17T00:50:51.176Z,42.01
2023-04-17T00:51:51.170Z,41.97
2023-04-17T00:52:50.205Z,41.99
2023-04-17T00:53:51.162Z,41.96
2023-04-17T00:54:51.142Z,41.97
2023-04-17T00:55:50.135Z,41.97
2023-04-17T00:56:50.139Z,41.98
2023-04-17T00:57:51.179Z,41.99
2023-04-17T00:58:51.166Z,41.98
2023-04-17T00:59:51.126Z,41.95
2023-04-17T01:00:50.204Z,41.95
2023-04-17T01:01:50.132Z,41.98
2023-04-17T01:02:51.325Z,41.96
2023-04-17T01:03:50.324Z,41.94
2023-04-17T01:04:51.114Z,41.96
2023-04-17T01:05:50.077Z,41.94
2023-04-17T01:06:51.097Z,41.98
2023-04-17T01:07:50.087Z,41.95
2023-04-17T01:08:51.085Z,41.94
2023-04-17T01:09:51.048Z,41.94
2023-04-17T01:10:50.048Z,41.93
2023-04-17T01:11:51.020Z,41.94
2023-04-17T01:12:51.023Z,41.94
2023-04-17T01:13:51.045Z,41.93
2023-04-17T01:14:50.100Z,41.92
2023-04-17T01:15:51.108Z,41.91
2023-04-17T01:16:50.177Z,41.93
2023-04-17T01:17:50.217Z,41.90
2023-04-17T01:18:50.220Z,41.94
2023-04-17T01:19:50.235Z,41.92
2023-04-17T01:20:51.262Z,41.90
2023-04-17T01:21:51.294Z,41.89
2023-04-17T01:22:51.341Z,41.91
2023-04-17T01:23:51.347Z,41.89
2023-04-17T01:24:51.388Z,41.90
2023-04-17T01:25:51.417Z,41.90
2023-04-17T01:26:51.432Z,41.89
2023-04-17T01:27:51.457Z,41.90
2023-04-17T01:28:51.521Z,41.90
2023-04-17T01:29:51.536Z,41.92
2023-04-17T01:30:51.562Z,41.90
2023-04-17T01:31:51.611Z,41.88
2023-04-17T01:32:51.672Z,41.91
2023-04-17T01:33:50.659Z,41.91
2023-04-17T01:34:51.690Z,41.90
2023-04-17T01:35:50.699Z,41.88
2023-04-17T01:36:51.745Z,41.92
2023-04-17T01:37:51.746Z,41.93
2023-04-17T01:38:51.830Z,41.93
2023-04-17T01:39:51.830Z,41.94
2023-04-17T01:40:50.839Z,41.94
2023-04-17T01:41:50.852Z,41.94
2023-04-17T01:42:50.897Z,41.92
2023-04-17T01:43:50.912Z,41.91
2023-04-17T01:44:51.940Z,41.94
2023-04-17T01:45:50.996Z,41.94
2023-04-17T01:46:51.993Z,41.94
2023-04-17T01:47:52.041Z,41.94
2023-04-17T01:48:51.058Z,41.94
2023-04-17T01:49:52.064Z,41.92
2023-04-17T01:50:52.120Z,41.95
2023-04-17T01:51:52.118Z,41.95
2023-04-17T01:52:52.135Z,41.96
2023-04-17T01:53:51.212Z,41.92
2023-04-17T01:54:51.233Z,41.96
2023-04-17T01:55:51.281Z,41.95
2023-04-17T01:56:52.235Z,41.96
2023-04-17T01:57:52.260Z,41.95
2023-04-17T01:58:52.298Z,41.96
2023-04-17T01:59:52.324Z,41.95
2023-04-17T02:00:52.373Z,41.96
2023-04-17T02:01:51.552Z,41.98
2023-04-17T02:02:52.672Z,42.00
2023-04-17T02:03:52.622Z,41.99
2023-04-17T02:04:51.463Z,42.00
2023-04-17T02:05:52.576Z,41.96
2023-04-17T02:06:52.571Z,41.99
2023-04-17T02:07:52.543Z,42.00
2023-04-17T02:08:51.614Z,42.00
2023-04-17T02:09:52.615Z,42.00
2023-04-17T02:10:51.629Z,42.00
2023-04-17T02:11:52.665Z,42.02
2023-04-17T02:12:52.724Z,41.99
2023-04-17T02:13:51.734Z,41.98
2023-04-17T02:14:52.766Z,41.97
2023-04-17T02:15:52.822Z,42.01
2023-04-17T02:16:51.799Z,42.00
2023-04-17T02:17:51.884Z,42.00
2023-04-17T02:18:51.905Z,42.03
2023-04-17T02:19:52.906Z,42.02
2023-04-17T02:20:52.928Z,42.00
2023-04-17T02:21:51.958Z,41.98
2023-04-17T02:22:53.020Z,41.99
2023-04-17T02:23:52.021Z,41.98
2023-04-17T02:24:53.049Z,42.02
2023-04-17T02:25:53.066Z,42.00
2023-04-17T02:26:53.105Z,41.98
2023-04-17T02:27:52.140Z,42.02
2023-04-17T02:28:53.181Z,41.98
2023-04-17T02:29:53.198Z,41.98
2023-04-17T02:30:53.291Z,41.98
2023-04-17T02:31:53.371Z,41.98
2023-04-17T02:32:53.349Z,41.97
2023-04-17T02:33:52.337Z,41.96
2023-04-17T02:34:53.360Z,41.99
2023-04-17T02:35:53.437Z,41.99
2023-04-17T02:36:53.425Z,41.95
2023-04-17T02:37:52.462Z,41.95
2023-04-17T02:38:53.529Z,41.96
2023-04-17T02:39:52.588Z,41.98
2023-04-17T02:40:53.552Z,41.94
2023-04-17T02:41:52.563Z,41.94
2023-04-17T02:42:53.580Z,41.94
2023-04-17T02:43:53.754Z,41.94
2023-04-17T02:44:53.672Z,41.92
2023-04-17T02:45:52.686Z,41.93
2023-04-17T02:46:53.743Z,41.92
2023-04-17T02:47:53.766Z,41.93
2023-04-17T02:48:53.753Z,41.89
2023-04-17T02:49:53.804Z,41.90
2023-04-17T02:50:53.810Z,41.89
2023-04-17T02:51:53.921Z,41.89
2023-04-17T02:52:53.861Z,41.89
2023-04-17T02:53:53.879Z,41.89
2023-04-17T02:54:53.905Z,41.92
2023-04-17T02:55:53.948Z,41.92
2023-04-17T02:56:53.985Z,41.90
2023-04-17T02:57:53.945Z,41.89
2023-04-17T02:58:52.995Z,41.88
2023-04-17T02:59:52.983Z,41.89
2023-04-17T03:00:54.058Z,41.90
2023-04-17T03:01:54.195Z,41.89
2023-04-17T03:02:54.184Z,41.90
2023-04-17T03:03:53.524Z,41.89
2023-04-17T03:04:53.137Z,41.92
2023-04-17T03:05:53.165Z,41.92
2023-04-17T03:06:53.204Z,41.94
2023-04-17T03:07:54.224Z,41.94
2023-04-17T03:08:54.270Z,41.93
2023-04-17T03:09:54.288Z,41.91
2023-04-17T03:10:54.301Z,41.94
2023-04-17T03:11:54.307Z,41.94
2023-04-17T03:12:54.334Z,41.92
2023-04-17T03:13:54.410Z,41.93
2023-04-17T03:14:54.508Z,41.97
2023-04-17T03:15:54.429Z,41.92
2023-04-17T03:16:53.561Z,41.92
2023-04-17T03:17:53.560Z,41.96
2023-04-17T03:18:54.521Z,41.95
2023-04-17T03:19:54.531Z,41.94
2023-04-17T03:20:53.530Z,41.95
2023-04-17T03:21:54.549Z,41.96
2023-04-17T03:22:54.580Z,41.96
2023-04-17T03:23:53.610Z,41.93
2023-04-17T03:24:54.743Z,41.95
2023-04-17T03:25:54.688Z,41.98
2023-04-17T03:26:54.710Z,41.96
2023-04-17T03:27:54.711Z,41.96
2023-04-17T03:28:54.733Z,41.98
2023-04-17T03:29:53.775Z,41.97
2023-04-17T03:30:53.801Z,41.97
2023-04-17T03:31:54.870Z,41.98
2023-04-17T03:32:54.893Z,41.97
2023-04-17T03:33:54.886Z,41.93
2023-04-17T03:34:53.936Z,41.96
2023-04-17T03:35:54.953Z,41.94
2023-04-17T03:36:54.970Z,41.99
2023-04-17T03:37:55.001Z,41.99
2023-04-17T03:38:54.020Z,41.95
2023-04-17T03:39:54.051Z,41.93
2023-04-17T03:40:54.077Z,41.95
2023-04-17T03:41:55.115Z,41.95
2023-04-17T03:42:54.187Z,41.92
2023-04-17T03:43:54.184Z,41.94
2023-04-17T03:44:54.191Z,41.93
2023-04-17T03:45:54.309Z,41.91
2023-04-17T03:46:55.250Z,41.93
2023-04-17T03:47:54.340Z,41.96
2023-04-17T03:48:54.312Z,41.93
2023-04-17T03:49:55.352Z,41.94
2023-04-17T03:50:55.363Z,41.93
2023-04-17T03:51:55.393Z,41.94
2023-04-17T03:52:55.441Z,41.94
2023-04-17T03:53:55.510Z,41.93
2023-04-17T03:54:55.500Z,41.91
2023-04-17T03:55:55.503Z,41.93
2023-04-17T03:56:55.526Z,41.95
2023-04-17T03:57:55.561Z,41.92
2023-04-17T03:58:55.627Z,41.91
2023-04-17T03:59:55.612Z,41.90
2023-04-17T04:00:54.638Z,41.90
2023-04-17T04:01:54.687Z,41.91
2023-04-17T04:02:54.785Z,41.90
2023-04-17T04:03:55.829Z,41.89
2023-04-17T04:04:54.849Z,41.89
2023-04-17T04:05:54.822Z,41.92
2023-04-17T04:06:55.771Z,41.90
2023-04-17T04:07:55.784Z,41.90
2023-04-17T04:08:54.853Z,41.90
2023-04-17T04:09:55.842Z,41.91
2023-04-17T04:10:54.863Z,41.92
2023-04-17T04:11:55.904Z,41.90
2023-04-17T04:12:55.907Z,41.89
2023-04-17T04:13:55.931Z,41.90
2023-04-17T04:14:55.001Z,41.87
2023-04-17T04:15:55.046Z,41.89
2023-04-17T04:16:55.024Z,41.87
2023-04-17T04:17:56.090Z,41.86
2023-04-17T04:18:56.074Z,41.90
2023-04-17T04:19:55.100Z,41.84
2023-04-17T04:20:56.157Z,41.88
2023-04-17T04:21:56.161Z,41.88
2023-04-17T04:22:55.186Z,41.85
2023-04-17T04:23:55.208Z,41.86
2023-04-17T04:24:56.237Z,41.84
2023-04-17T04:25:56.271Z,41.87
2023-04-17T04:26:56.303Z,41.87
2023-04-17T04:27:56.304Z,41.87
2023-04-17T04:28:55.317Z,41.86
2023-04-17T04:29:55.360Z,41.85
2023-04-17T04:30:56.402Z,41.83
2023-04-17T04:31:56.473Z,41.81
2023-04-17T04:32:56.493Z,41.81
2023-04-17T04:33:56.438Z,41.83
2023-04-17T04:34:56.458Z,41.85
2023-04-17T04:35:56.471Z,41.84
2023-04-17T04:36:56.499Z,41.84
2023-04-17T04:37:56.531Z,41.84
2023-04-17T04:38:56.560Z,41.86
2023-04-17T04:39:56.587Z,41.83
2023-04-17T04:40:55.592Z,41.84
2023-04-17T04:41:55.639Z,41.82
2023-04-17T04:42:56.635Z,41.84
2023-04-17T04:43:56.670Z,41.82
2023-04-17T04:44:55.682Z,41.79
2023-04-17T04:45:55.695Z,41.79
2023-04-17T04:46:56.890Z,41.80
2023-04-17T04:47:56.767Z,41.82
2023-04-17T04:48:56.763Z,41.79
2023-04-17T04:49:56.782Z,41.79
2023-04-17T04:50:56.801Z,41.76
2023-04-17T04:51:56.815Z,41.80
2023-04-17T04:52:55.833Z,41.75
2023-04-17T04:53:55.851Z,41.75
2023-04-17T04:54:56.882Z,41.75
2023-04-17T04:55:55.899Z,41.75
2023-04-17T04:56:55.908Z,41.74
2023-04-17T04:57:55.919Z,41.79
2023-04-17T04:58:56.928Z,41.76
2023-04-17T04:59:56.968Z,41.77
2023-04-17T05:00:56.979Z,41.75
2023-04-17T05:01:57.138Z,41.76
2023-04-17T05:02:56.199Z,41.70
2023-04-17T05:03:57.239Z,41.72
2023-04-17T05:04:56.240Z,41.73
2023-04-17T05:05:56.094Z,41.72
2023-04-17T05:06:56.135Z,41.70
2023-04-17T05:07:56.162Z,41.71
2023-04-17T05:08:57.128Z,41.71
2023-04-17T05:09:56.187Z,41.69
2023-04-17T05:10:57.250Z,41.68
2023-04-17T05:11:57.262Z,41.65
2023-04-17T05:12:56.229Z,41.63
2023-04-17T05:13:56.243Z,41.65
2023-04-17T05:14:57.299Z,41.67
2023-04-17T05:15:58.557Z,41.64
2023-04-17T05:16:57.272Z,41.67
2023-04-17T05:17:57.322Z,41.65
2023-04-17T05:18:56.284Z,41.66
2023-04-17T05:19:56.279Z,41.63
2023-04-17T05:20:57.276Z,41.66
2023-04-17T05:21:57.288Z,41.62
2023-04-17T05:22:56.260Z,41.67
2023-04-17T05:23:57.212Z,41.69
2023-04-17T05:24:57.236Z,41.65
2023-04-17T05:25:56.225Z,41.64
2023-04-17T05:26:57.227Z,41.57
2023-04-17T05:27:56.195Z,41.64
2023-04-17T05:28:57.246Z,41.63
2023-04-17T05:29:56.207Z,41.63
2023-04-17T05:30:56.194Z,41.66
2023-04-17T05:31:56.182Z,41.66
2023-04-17T05:32:57.206Z,41.90
2023-04-17T05:33:57.172Z,41.80
2023-04-17T05:34:57.284Z,41.76
2023-04-17T05:35:57.148Z,41.73
2023-04-17T05:36:56.166Z,41.92
2023-04-17T05:37:57.153Z,41.96
2023-04-17T05:38:57.119Z,41.99
2023-04-17T05:39:56.149Z,41.97
2023-04-17T05:40:57.113Z,42.07
2023-04-17T05:41:57.127Z,41.89
2023-04-17T05:42:57.130Z,42.01
2023-04-17T05:43:56.103Z,42.15
2023-04-17T05:44:56.100Z,42.08
2023-04-17T05:45:56.235Z,42.08
2023-04-17T05:46:56.101Z,42.41
2023-04-17T05:47:56.184Z,42.69
2023-04-17T05:48:57.051Z,42.96
2023-04-17T05:49:57.060Z,43.05
2023-04-17T05:50:57.081Z,43.43
2023-04-17T05:51:57.058Z,43.30
2023-04-17T05:52:56.087Z,43.65
2023-04-17T05:53:57.888Z,43.78
2023-04-17T05:54:56.033Z,43.81
2023-04-17T05:55:57.490Z,44.35
2023-04-17T05:56:57.072Z,44.49
2023-04-17T05:57:58.334Z,45.32
2023-04-17T05:59:03.694Z,44.93
2023-04-17T05:59:57.195Z,46.00
2023-04-17T06:00:56.177Z,45.89
2023-04-17T06:01:56.236Z,46.16
2023-04-17T06:02:56.351Z,45.94
2023-04-17T06:03:57.688Z,45.90
2023-04-17T06:04:56.319Z,46.04
2023-04-17T06:05:57.251Z,45.99
2023-04-17T06:06:57.169Z,46.30
2023-04-17T06:07:56.133Z,46.79
2023-04-17T06:08:56.118Z,46.82
2023-04-17T06:09:57.105Z,46.65
2023-04-17T06:10:57.116Z,46.61
2023-04-17T06:11:56.094Z,46.78
2023-04-17T06:12:56.122Z,46.79
2023-04-17T06:13:56.091Z,46.73
2023-04-17T06:14:57.083Z,46.75
2023-04-17T06:15:56.074Z,46.45
2023-04-17T06:16:57.142Z,46.32
2023-04-17T06:17:56.093Z,46.20
2023-04-17T06:18:56.047Z,46.43
2023-04-17T06:19:57.069Z,46.01
2023-04-17T06:20:57.028Z,45.88
2023-04-17T06:21:57.026Z,45.74
2023-04-17T06:22:57.155Z,45.83
2023-04-17T06:23:56.005Z,45.69
2023-04-17T06:24:57.006Z,45.71
2023-04-17T06:25:55.996Z,45.58
2023-04-17T06:26:56.992Z,45.35
2023-04-17T06:27:56.995Z,45.25
2023-04-17T06:28:55.992Z,45.33
2023-04-17T06:29:57.002Z,45.52
2023-04-17T06:30:57.021Z,45.67
2023-04-17T06:31:56.945Z,45.68
2023-04-17T06:32:56.992Z,45.76
2023-04-17T06:33:56.942Z,45.76
2023-04-17T06:34:59.512Z,45.81
2023-04-17T06:35:55.930Z,45.86
2023-04-17T06:36:56.924Z,45.93
2023-04-17T06:37:56.911Z,46.03
2023-04-17T06:38:55.932Z,46.12
2023-04-17T06:39:55.920Z,46.22
2023-04-17T06:40:56.890Z,46.44
2023-04-17T06:41:56.895Z,46.33
2023-04-17T06:42:55.870Z,46.55
2023-04-17T06:43:56.877Z,46.67
2023-04-17T06:44:56.845Z,46.81
2023-04-17T06:45:55.876Z,46.79
2023-04-17T06:46:56.835Z,46.85
2023-04-17T06:47:56.898Z,46.67
2023-04-17T06:48:56.885Z,46.74
2023-04-17T06:49:56.817Z,46.90
2023-04-17T06:50:56.820Z,47.24
2023-04-17T06:51:55.820Z,47.12
2023-04-17T06:52:56.860Z,47.12
2023-04-17T06:53:56.780Z,47.20
2023-04-17T06:54:55.929Z,47.30
2023-04-17T06:55:56.922Z,47.25
2023-04-17T06:56:56.793Z,47.88
2023-04-17T06:57:56.766Z,47.65
2023-04-17T06:58:55.776Z,47.56
2023-04-17T06:59:56.751Z,47.56
2023-04-17T07:00:56.735Z,47.49
2023-04-17T07:01:55.786Z,47.40
2023-04-17T07:02:55.829Z,47.67
2023-04-17T07:03:56.854Z,47.74
2023-04-17T07:04:56.736Z,48.24
2023-04-17T07:05:55.746Z,48.55
2023-04-17T07:06:55.777Z,48.18
2023-04-17T07:07:56.856Z,48.09
2023-04-17T07:08:56.874Z,48.44
2023-04-17T07:09:56.926Z,48.12
2023-04-17T07:10:57.113Z,48.23
2023-04-17T07:11:57.011Z,48.36
2023-04-17T07:12:56.066Z,48.62
2023-04-17T07:13:57.069Z,48.65
2023-04-17T07:14:57.116Z,48.91
2023-04-17T07:15:57.191Z,49.26
2023-04-17T07:16:57.146Z,49.48
2023-04-17T07:17:57.370Z,49.16
2023-04-17T07:18:57.247Z,49.37
2023-04-17T07:19:56.253Z,49.61
2023-04-17T07:20:56.286Z,50.01
2023-04-17T07:21:57.306Z,50.05
2023-04-17T07:22:57.316Z,50.14
2023-04-17T07:23:57.374Z,50.34
2023-04-17T07:24:57.404Z,48.57
2023-04-17T07:25:57.475Z,49.33
2023-04-17T07:26:57.532Z,45.53
2023-04-17T07:27:57.612Z,47.05
2023-04-17T07:28:56.616Z,42.91
2023-04-17T07:29:56.647Z,43.65
2023-04-17T07:30:57.644Z,44.76
2023-04-17T07:31:57.706Z,44.90
2023-04-17T07:32:56.705Z,44.66
2023-04-17T07:33:57.696Z,43.37
2023-04-17T07:34:56.732Z,43.43
2023-04-17T07:35:57.793Z,42.43
2023-04-17T07:36:57.792Z,43.32
2023-04-17T07:37:57.851Z,41.16
2023-04-17T07:38:57.899Z,41.26
2023-04-17T07:39:57.950Z,42.31
2023-04-17T07:40:57.008Z,42.79
2023-04-17T07:41:58.064Z,42.36
2023-04-17T07:42:57.165Z,42.96
2023-04-17T07:43:59.152Z,42.18
2023-04-17T07:44:57.276Z,42.20
2023-04-17T07:45:58.326Z,42.32
2023-04-17T07:46:58.412Z,41.55
2023-04-17T07:47:58.457Z,41.49
2023-04-17T07:48:58.433Z,40.97
2023-04-17T07:49:58.471Z,40.60
2023-04-17T07:50:58.887Z,41.60
2023-04-17T07:51:58.505Z,41.69
2023-04-17T07:52:57.597Z,41.80
2023-04-17T07:53:58.564Z,42.34
2023-04-17T07:54:58.610Z,42.59
2023-04-17T07:55:58.670Z,42.78
2023-04-17T07:56:58.705Z,42.99
2023-04-17T07:57:58.745Z,43.29
2023-04-17T07:58:58.766Z,43.87
2023-04-17T07:59:58.747Z,43.83
2023-04-17T08:00:58.819Z,43.85
2023-04-17T08:01:58.869Z,43.85
2023-04-17T08:02:59.040Z,44.07
2023-04-17T08:03:59.319Z,44.26
2023-04-17T08:04:57.906Z,44.52
2023-04-17T08:05:58.820Z,44.74
2023-04-17T08:06:58.800Z,44.84
2023-04-17T08:07:58.803Z,44.84
2023-04-17T08:08:57.810Z,44.93
2023-04-17T08:09:58.814Z,44.93
2023-04-17T08:10:58.830Z,45.00
2023-04-17T08:11:58.361Z,45.15
2023-04-17T08:12:58.859Z,45.16
2023-04-17T08:13:58.890Z,45.20
2023-04-17T08:14:58.945Z,45.30
2023-04-17T08:15:57.928Z,45.49
2023-04-17T08:16:58.046Z,45.67
2023-04-17T08:17:58.017Z,45.98
2023-04-17T08:18:59.005Z,45.95
2023-04-17T08:19:59.053Z,45.94
2023-04-17T08:20:59.109Z,46.14
2023-04-17T08:21:58.118Z,46.46
2023-04-17T08:22:59.157Z,46.73
2023-04-17T08:23:58.201Z,46.60
2023-04-17T08:24:59.238Z,46.56
2023-04-17T08:25:59.254Z,46.42
2023-04-17T08:26:58.269Z,46.32
2023-04-17T08:27:58.307Z,46.42
2023-04-17T08:28:59.330Z,46.35
2023-04-17T08:29:59.344Z,46.42
2023-04-17T08:30:59.624Z,46.67
2023-04-17T08:32:13.480Z,46.78
2023-04-17T08:32:59.404Z,46.74
2023-04-17T08:34:06.613Z,46.67
2023-04-17T08:34:59.367Z,46.69
2023-04-17T08:36:01.443Z,46.80
2023-04-17T08:36:59.351Z,47.25
2023-04-17T08:37:58.373Z,47.58
2023-04-17T08:38:59.362Z,47.51
2023-04-17T08:39:59.334Z,47.49
2023-04-17T08:40:59.345Z,47.54
2023-04-17T08:41:59.330Z,47.65
2023-04-17T08:42:59.328Z,47.57
2023-04-17T08:43:58.311Z,47.56
2023-04-17T08:44:59.308Z,47.22
2023-04-17T08:45:58.349Z,47.82
2023-04-17T08:46:59.321Z,47.08
2023-04-17T08:47:58.328Z,46.95
2023-04-17T08:48:59.289Z,46.73
2023-04-17T08:49:58.273Z,46.58
2023-04-17T08:50:59.321Z,45.85
2023-04-17T08:51:59.249Z,46.25
2023-04-17T08:52:59.253Z,46.46
2023-04-17T08:53:59.235Z,45.82
2023-04-17T08:54:59.235Z,45.28
2023-04-17T08:55:59.237Z,45.80
2023-04-17T08:56:59.206Z,46.25
2023-04-17T08:57:59.222Z,46.09
2023-04-17T08:58:59.199Z,46.11
2023-04-17T08:59:58.199Z,46.02
2023-04-17T09:00:58.182Z,46.01
2023-04-17T09:01:58.308Z,46.04
2023-04-17T09:02:59.494Z,45.98
2023-04-17T09:03:58.362Z,46.05
2023-04-17T09:04:59.315Z,46.12
2023-04-17T09:05:58.175Z,46.05
2023-04-17T09:06:59.134Z,46.05
2023-04-17T09:07:59.182Z,46.08
2023-04-17T09:08:58.227Z,46.17
2023-04-17T09:09:59.298Z,46.10
2023-04-17T09:10:58.349Z,46.09
2023-04-17T09:11:58.417Z,46.09
2023-04-17T09:12:59.481Z,46.17
2023-04-17T09:13:58.542Z,46.20
2023-04-17T09:14:59.601Z,46.22
2023-04-17T09:15:59.684Z,46.26
2023-04-17T09:16:59.699Z,46.22
2023-04-17T09:17:58.831Z,46.36
2023-04-17T09:18:59.826Z,46.33
2023-04-17T09:19:58.855Z,46.35
2023-04-17T09:20:59.920Z,46.42
2023-04-17T09:21:58.983Z,46.43
2023-04-17T09:23:00.020Z,46.47
2023-04-17T09:24:00.106Z,46.55
2023-04-17T09:25:00.124Z,46.53
2023-04-17T09:25:59.147Z,46.64
2023-04-17T09:27:00.175Z,46.76
2023-04-17T09:28:00.236Z,46.83
2023-04-17T09:28:59.262Z,46.86
2023-04-17T09:30:00.303Z,46.84
2023-04-17T09:31:00.350Z,46.84
2023-04-17T09:32:00.436Z,46.88
2023-04-17T09:32:59.459Z,46.86
2023-04-17T09:33:59.537Z,46.88
2023-04-17T09:35:00.731Z,46.98
2023-04-17T09:35:59.525Z,46.99
2023-04-17T09:36:59.541Z,47.09
2023-04-17T09:38:00.571Z,47.09
2023-04-17T09:39:00.596Z,47.04
2023-04-17T09:39:59.684Z,47.16
2023-04-17T09:40:59.658Z,47.19
2023-04-17T09:42:02.997Z,47.24
2023-04-17T09:43:00.706Z,47.17
2023-04-17T09:44:00.654Z,47.28
2023-04-17T09:45:01.431Z,47.30
2023-04-17T09:45:59.653Z,47.34
2023-04-17T09:47:00.846Z,47.35
2023-04-17T09:48:00.692Z,47.47
2023-04-17T09:49:00.634Z,47.26
2023-04-17T09:50:00.627Z,47.27
2023-04-17T09:51:00.195Z,47.48
2023-04-17T09:51:59.634Z,47.31
2023-04-17T09:52:59.590Z,47.25
2023-04-17T09:53:59.593Z,47.39
2023-04-17T09:54:59.590Z,47.37
2023-04-17T09:56:00.588Z,47.52
2023-04-17T09:56:59.591Z,47.46
2023-04-17T09:58:00.559Z,47.48
2023-04-17T09:59:00.549Z,47.57
2023-04-17T09:59:59.552Z,47.51
2023-04-17T10:01:00.615Z,47.56
2023-04-17T10:02:00.693Z,47.64
2023-04-17T10:02:59.849Z,47.71
2023-04-17T10:03:59.955Z,47.82
2023-04-17T10:04:59.692Z,47.80
2023-04-17T10:05:59.739Z,47.91
2023-04-17T10:07:00.931Z,47.89
2023-04-17T10:08:00.793Z,47.91
2023-04-17T10:09:00.805Z,47.97
2023-04-17T10:10:00.836Z,48.03
2023-04-17T10:11:00.855Z,48.05
2023-04-17T10:11:59.894Z,48.14
2023-04-17T10:13:00.922Z,48.15
2023-04-17T10:14:00.956Z,48.34
2023-04-17T10:14:59.990Z,48.46
2023-04-17T10:16:01.082Z,48.43
2023-04-17T10:17:01.065Z,48.50
2023-04-17T10:18:01.176Z,48.51
2023-04-17T10:19:01.125Z,48.62
2023-04-17T10:20:01.147Z,48.78
2023-04-17T10:21:01.202Z,48.66
2023-04-17T10:22:01.225Z,48.72
2023-04-17T10:23:00.279Z,48.75
2023-04-17T10:24:00.305Z,48.60
2023-04-17T10:25:01.382Z,48.66
2023-04-17T10:26:01.371Z,48.57
2023-04-17T10:27:00.423Z,48.62
2023-04-17T10:28:01.449Z,48.82
2023-04-17T10:29:01.502Z,48.64
2023-04-17T10:30:01.548Z,48.73
2023-04-17T10:31:01.571Z,48.71
2023-04-17T10:32:00.691Z,48.63
2023-04-17T10:33:01.677Z,48.71
2023-04-17T10:34:01.678Z,48.76
2023-04-17T10:35:01.714Z,48.76
2023-04-17T10:36:00.739Z,48.86
2023-04-17T10:37:01.743Z,48.88
2023-04-17T10:38:01.765Z,48.92
2023-04-17T10:39:00.881Z,48.90
2023-04-17T10:40:01.836Z,48.95
2023-04-17T10:41:01.777Z,49.11
2023-04-17T10:42:01.937Z,49.18
2023-04-17T10:43:01.841Z,49.31
2023-04-17T10:44:01.849Z,49.24
2023-04-17T10:45:00.872Z,49.13
2023-04-17T10:46:02.066Z,49.06
2023-04-17T10:47:02.442Z,49.08
2023-04-17T10:48:02.044Z,49.37
2023-04-17T10:49:00.995Z,49.38
2023-04-17T10:50:02.046Z,49.52
2023-04-17T10:51:02.106Z,49.53
2023-04-17T10:52:01.154Z,49.63
2023-04-17T10:53:01.209Z,49.67
2023-04-17T10:54:01.277Z,49.71
2023-04-17T10:55:01.362Z,49.67
2023-04-17T10:56:01.377Z,49.57
2023-04-17T10:57:02.438Z,49.67
2023-04-17T10:58:02.553Z,49.70
2023-04-17T10:59:01.540Z,49.70
2023-04-17T11:00:01.606Z,49.78
2023-04-17T11:01:02.728Z,49.75
2023-04-17T11:02:02.854Z,49.83
2023-04-17T11:03:02.016Z,49.72
2023-04-17T11:04:02.016Z,49.77
2023-04-17T11:05:03.037Z,49.85
2023-04-17T11:06:02.997Z,49.88
2023-04-17T11:07:03.175Z,49.93
2023-04-17T11:08:02.110Z,49.70
2023-04-17T11:09:02.182Z,49.80
2023-04-17T11:10:03.232Z,49.80
2023-04-17T11:11:03.269Z,49.61
2023-04-17T11:12:03.289Z,49.63
2023-04-17T11:13:02.305Z,49.66
2023-04-17T11:14:02.320Z,49.69
2023-04-17T11:15:03.348Z,49.84
2023-04-17T11:16:02.367Z,49.83
2023-04-17T11:17:02.571Z,49.86
2023-04-17T11:18:03.505Z,49.91
2023-04-17T11:19:03.442Z,49.79
2023-04-17T11:20:03.480Z,49.91
2023-04-17T11:21:03.504Z,49.87
2023-04-17T11:22:03.512Z,49.83
2023-04-17T11:23:03.577Z,49.83
2023-04-17T11:24:03.554Z,49.78
2023-04-17T11:25:02.579Z,49.92
2023-04-17T11:26:03.760Z,49.79
2023-04-17T11:27:03.939Z,49.80
2023-04-17T11:28:02.674Z,49.88
2023-04-17T11:29:03.667Z,49.90
2023-04-17T11:30:02.690Z,49.84
2023-04-17T11:31:02.729Z,49.76
2023-04-17T11:32:02.772Z,49.73
2023-04-17T11:33:03.704Z,49.84
2023-04-17T11:34:03.693Z,49.78
2023-04-17T11:35:02.694Z,49.80
2023-04-17T11:36:03.699Z,49.79
2023-04-17T11:37:03.959Z,49.72
2023-04-17T11:38:03.671Z,49.78
2023-04-17T11:39:03.668Z,49.73
2023-04-17T11:40:02.688Z,49.74
2023-04-17T11:41:03.681Z,49.82
2023-04-17T11:42:02.731Z,49.74
2023-04-17T11:43:02.672Z,49.72
2023-04-17T11:44:03.657Z,49.75
2023-04-17T11:45:04.509Z,49.73
2023-04-17T11:46:03.719Z,49.88
2023-04-17T11:47:03.686Z,49.79
2023-04-17T11:48:02.713Z,49.72
2023-04-17T11:49:03.705Z,49.77
2023-04-17T11:50:02.696Z,49.77
2023-04-17T11:51:03.745Z,49.78
2023-04-17T11:52:03.707Z,49.74
2023-04-17T11:53:04.462Z,49.69
2023-04-17T11:54:03.722Z,49.69
2023-04-17T11:55:02.732Z,49.73
2023-04-17T11:56:03.748Z,49.65
2023-04-17T11:57:02.761Z,49.74
2023-04-17T11:58:03.794Z,49.69
2023-04-17T11:59:03.769Z,49.66
2023-04-17T12:00:03.826Z,49.69
2023-04-17T12:01:03.821Z,49.71
2023-04-17T12:02:02.897Z,49.69
2023-04-17T12:03:03.936Z,49.71
2023-04-17T12:04:04.168Z,49.71
2023-04-17T12:05:04.108Z,49.73
2023-04-17T12:06:03.902Z,49.68
2023-04-17T12:07:03.997Z,49.70
2023-04-17T12:08:03.970Z,49.59
2023-04-17T12:09:03.987Z,49.40
2023-04-17T12:10:03.022Z,49.34
2023-04-17T12:11:03.027Z,49.28
2023-04-17T12:12:03.102Z,49.24
2023-04-17T12:13:04.068Z,49.15
2023-04-17T12:14:03.105Z,49.06
2023-04-17T12:15:03.096Z,49.00
2023-04-17T12:16:03.200Z,48.96
2023-04-17T12:17:04.329Z,48.94
2023-04-17T12:18:04.388Z,48.87
2023-04-17T12:19:04.132Z,48.82
2023-04-17T12:20:03.175Z,48.82
2023-04-17T12:21:03.143Z,48.80
2023-04-17T12:22:04.218Z,48.72
2023-04-17T12:23:03.171Z,48.68
2023-04-17T12:24:03.176Z,48.67
2023-04-17T12:25:04.204Z,48.92
2023-04-17T12:26:03.215Z,48.64
2023-04-17T12:27:03.239Z,48.63
2023-04-17T12:28:04.260Z,48.56
2023-04-17T12:29:04.301Z,48.65
2023-04-17T12:30:04.317Z,48.69
2023-04-17T12:31:03.316Z,48.74
2023-04-17T12:32:04.409Z,48.85
2023-04-17T12:33:04.526Z,48.84
2023-04-17T12:34:03.403Z,48.83
2023-04-17T12:35:03.445Z,48.81
2023-04-17T12:36:03.485Z,48.96
2023-04-17T12:37:04.499Z,48.94
2023-04-17T12:38:04.529Z,48.85
2023-04-17T12:39:04.533Z,48.80
2023-04-17T12:40:04.555Z,48.83
2023-04-17T12:41:04.593Z,49.57
2023-04-17T12:42:03.599Z,49.74
2023-04-17T12:43:04.641Z,49.61
2023-04-17T12:44:04.682Z,49.64
2023-04-17T12:45:04.682Z,49.32
2023-04-17T12:46:04.781Z,49.29
2023-04-17T12:47:03.723Z,48.78
2023-04-17T12:48:04.800Z,48.68
2023-04-17T12:49:03.734Z,48.87
2023-04-17T12:50:03.777Z,48.87
2023-04-17T12:51:03.779Z,48.86
2023-04-17T12:52:04.834Z,48.99
2023-04-17T12:53:03.813Z,49.15